sensor_id;sensor_type;location;lat;lon;timestamp;pressure;altitude;pressure_sealevel;temperature;humidity
57885;BME280;43703;51.060;-0.086;2023-04-01T00:01:12;98408.50;;;6.47;86.88
57885;BME280;43703;51.060;-0.086;2023-04-01T00:03:36;98410.18;;;7.24;86.80
57885;BME280;43703;51.060;-0.086;2023-04-01T00:06:01;98411.48;;;6.48;87.71
57885;BME280;43703;51.060;-0.086;2023-04-01T00:08:27;98417.36;;;6.88;88.16
57885;BME280;43703;51.060;-0.086;2023-04-01T00:10:52;98417.46;;;7.23;87.02
57885;BME280;43703;51.060;-0.086;2023-04-01T00:13:16;98419.83;;;7.39;85.72
57885;BME280;43703;51.060;-0.086;2023-04-01T00:15:42;98422.18;;;6.41;88.01
57885;BME280;43703;51.060;-0.086;2023-04-01T00:18:07;98426.92;;;6.95;87.82
57885;BME280;43703;51.060;-0.086;2023-04-01T00:20:32;98428.97;;;6.65;87.89
57885;BME280;43703;51.060;-0.086;2023-04-01T00:22:56;98428.00;;;7.50;84.25
57885;BME280;43703;51.060;-0.086;2023-04-01T00:25:22;98432.04;;;6.85;87.21
57885;BME280;43703;51.060;-0.086;2023-04-01T00:27:46;98432.00;;;6.97;86.97
57885;BME280;43703;51.060;-0.086;2023-04-01T00:30:12;98439.04;;;6.52;90.23
57885;BME280;43703;51.060;-0.086;2023-04-01T00:32:37;98439.04;;;6.24;89.32
57885;BME280;43703;51.060;-0.086;2023-04-01T00:35:03;98439.09;;;7.25;86.78
57885;BME280;43703;51.060;-0.086;2023-04-01T00:37:28;98441.55;;;7.27;86.85
57885;BME280;43703;51.060;-0.086;2023-04-01T00:39:53;98447.16;;;6.82;89.63
57885;BME280;43703;51.060;-0.086;2023-04-01T00:42:18;98449.14;;;5.79;91.57
57885;BME280;43703;51.060;-0.086;2023-04-01T00:44:44;98450.49;;;6.04;90.85
57885;BME280;43703;51.060;-0.086;2023-04-01T00:47:08;98452.36;;;6.10;90.11
57885;BME280;43703;51.060;-0.086;2023-04-01T00:49:35;98457.08;;;6.64;88.87
57885;BME280;43703;51.060;-0.086;2023-04-01T00:52:00;98453.45;;;6.66;89.77
57885;BME280;43703;51.060;-0.086;2023-04-01T00:54:25;98461.68;;;6.05;90.33
57885;BME280;43703;51.060;-0.086;2023-04-01T00:56:51;98463.44;;;6.36;90.24
57885;BME280;43703;51.060;-0.086;2023-04-01T00:59:18;98469.91;;;6.05;90.50
57885;BME280;43703;51.060;-0.086;2023-04-01T01:01:39;98471.44;;;6.20;90.74
57885;BME280;43703;51.060;-0.086;2023-04-01T01:04:04;98475.91;;;6.99;87.98
57885;BME280;43703;51.060;-0.086;2023-04-01T01:06:38;98474.54;;;6.78;88.28
57885;BME280;43703;51.060;-0.086;2023-04-01T01:09:03;98480.54;;;6.09;89.76
57885;BME280;43703;51.060;-0.086;2023-04-01T01:11:25;98479.43;;;6.55;88.62
57885;BME280;43703;51.060;-0.086;2023-04-01T01:13:50;98481.18;;;6.56;87.48
57885;BME280;43703;51.060;-0.086;2023-04-01T01:16:13;98484.10;;;6.96;88.39
57885;BME280;43703;51.060;-0.086;2023-04-01T01:18:38;98489.94;;;6.22;89.31
57885;BME280;43703;51.060;-0.086;2023-04-01T01:25:56;98499.09;;;6.42;87.50
57885;BME280;43703;51.060;-0.086;2023-04-01T01:28:26;98504.00;;;6.24;90.32
57885;BME280;43703;51.060;-0.086;2023-04-01T01:30:44;98503.89;;;6.59;88.89
57885;BME280;43703;51.060;-0.086;2023-04-01T01:33:13;98504.32;;;7.18;86.68
57885;BME280;43703;51.060;-0.086;2023-04-01T01:35:33;98502.38;;;7.54;85.10
57885;BME280;43703;51.060;-0.086;2023-04-01T01:37:58;98509.78;;;6.07;89.24
57885;BME280;43703;51.060;-0.086;2023-04-01T01:40:20;98508.27;;;6.24;89.62
57885;BME280;43703;51.060;-0.086;2023-04-01T01:42:48;98514.61;;;6.14;89.62
57885;BME280;43703;51.060;-0.086;2023-04-01T01:45:10;98515.44;;;6.45;89.34
57885;BME280;43703;51.060;-0.086;2023-04-01T01:47:36;98519.53;;;7.51;83.87
57885;BME280;43703;51.060;-0.086;2023-04-01T01:50:00;98524.20;;;6.75;85.70
57885;BME280;43703;51.060;-0.086;2023-04-01T01:52:27;98526.64;;;6.37;88.96
57885;BME280;43703;51.060;-0.086;2023-04-01T01:54:51;98528.94;;;6.00;90.20
57885;BME280;43703;51.060;-0.086;2023-04-01T01:57:15;98532.68;;;6.99;87.56
57885;BME280;43703;51.060;-0.086;2023-04-01T01:59:41;98536.31;;;6.75;86.57
57885;BME280;43703;51.060;-0.086;2023-04-01T02:02:06;98541.04;;;5.86;90.44
57885;BME280;43703;51.060;-0.086;2023-04-01T02:04:30;98546.70;;;6.53;87.09
57885;BME280;43703;51.060;-0.086;2023-04-01T02:06:59;98554.40;;;5.76;91.37
57885;BME280;43703;51.060;-0.086;2023-04-01T02:09:20;98556.93;;;6.21;89.95
57885;BME280;43703;51.060;-0.086;2023-04-01T02:11:48;98560.90;;;6.03;90.03
57885;BME280;43703;51.060;-0.086;2023-04-01T02:14:14;98561.47;;;6.12;89.33
57885;BME280;43703;51.060;-0.086;2023-04-01T02:16:39;98560.58;;;6.76;87.02
57885;BME280;43703;51.060;-0.086;2023-04-01T02:19:01;98564.05;;;6.70;89.38
57885;BME280;43703;51.060;-0.086;2023-04-01T02:21:30;98567.08;;;6.30;89.07
57885;BME280;43703;51.060;-0.086;2023-04-01T02:23:52;98567.83;;;6.56;89.26
57885;BME280;43703;51.060;-0.086;2023-04-01T02:26:16;98568.56;;;6.51;89.01
57885;BME280;43703;51.060;-0.086;2023-04-01T02:28:41;98569.02;;;6.46;88.66
57885;BME280;43703;51.060;-0.086;2023-04-01T02:31:07;98572.92;;;6.30;89.28
57885;BME280;43703;51.060;-0.086;2023-04-01T02:33:31;98571.90;;;6.46;87.30
57885;BME280;43703;51.060;-0.086;2023-04-01T02:35:56;98575.22;;;6.45;88.91
57885;BME280;43703;51.060;-0.086;2023-04-01T02:38:21;98580.22;;;6.25;89.24
57885;BME280;43703;51.060;-0.086;2023-04-01T02:40:55;98578.25;;;6.54;88.02
57885;BME280;43703;51.060;-0.086;2023-04-01T02:43:12;98579.13;;;6.06;88.96
57885;BME280;43703;51.060;-0.086;2023-04-01T02:45:36;98580.18;;;6.39;87.85
57885;BME280;43703;51.060;-0.086;2023-04-01T02:48:01;98577.50;;;6.78;86.33
57885;BME280;43703;51.060;-0.086;2023-04-01T02:50:26;98582.47;;;6.39;87.00
57885;BME280;43703;51.060;-0.086;2023-04-01T02:52:51;98586.19;;;6.07;89.02
57885;BME280;43703;51.060;-0.086;2023-04-01T02:55:16;98583.00;;;6.56;87.41
57885;BME280;43703;51.060;-0.086;2023-04-01T02:57:41;98585.16;;;6.28;88.97
57885;BME280;43703;51.060;-0.086;2023-04-01T03:00:07;98584.09;;;7.09;85.28
57885;BME280;43703;51.060;-0.086;2023-04-01T03:02:31;98582.59;;;6.91;87.23
57885;BME280;43703;51.060;-0.086;2023-04-01T03:04:56;98590.99;;;6.48;86.65
57885;BME280;43703;51.060;-0.086;2023-04-01T03:07:21;98593.89;;;6.61;88.02
57885;BME280;43703;51.060;-0.086;2023-04-01T03:09:46;98596.04;;;6.10;89.08
57885;BME280;43703;51.060;-0.086;2023-04-01T03:12:12;98598.96;;;6.02;90.23
57885;BME280;43703;51.060;-0.086;2023-04-01T03:14:37;98601.96;;;6.21;89.84
57885;BME280;43703;51.060;-0.086;2023-04-01T03:17:02;98604.42;;;6.81;87.77
57885;BME280;43703;51.060;-0.086;2023-04-01T03:19:26;98606.68;;;5.96;90.63
57885;BME280;43703;51.060;-0.086;2023-04-01T03:21:51;98607.29;;;6.17;90.43
57885;BME280;43703;51.060;-0.086;2023-04-01T03:24:17;98610.96;;;6.12;88.99
57885;BME280;43703;51.060;-0.086;2023-04-01T03:26:42;98612.50;;;6.81;87.50
57885;BME280;43703;51.060;-0.086;2023-04-01T03:29:07;98614.44;;;6.58;87.95
57885;BME280;43703;51.060;-0.086;2023-04-01T03:31:32;98618.44;;;6.47;86.72
57885;BME280;43703;51.060;-0.086;2023-04-01T03:33:57;98615.13;;;6.48;87.10
57885;BME280;43703;51.060;-0.086;2023-04-01T03:36:22;98618.64;;;6.76;86.16
57885;BME280;43703;51.060;-0.086;2023-04-01T03:38:47;98619.14;;;6.75;86.88
57885;BME280;43703;51.060;-0.086;2023-04-01T03:41:12;98621.88;;;6.06;90.82
57885;BME280;43703;51.060;-0.086;2023-04-01T03:43:37;98625.09;;;6.03;91.38
57885;BME280;43703;51.060;-0.086;2023-04-01T03:46:02;98624.31;;;6.01;91.67
57885;BME280;43703;51.060;-0.086;2023-04-01T03:48:27;98623.89;;;6.07;90.87
57885;BME280;43703;51.060;-0.086;2023-04-01T03:50:52;98628.05;;;6.05;89.40
57885;BME280;43703;51.060;-0.086;2023-04-01T03:53:17;98631.26;;;6.68;88.04
57885;BME280;43703;51.060;-0.086;2023-04-01T03:55:42;98630.36;;;7.08;84.45
57885;BME280;43703;51.060;-0.086;2023-04-01T03:58:09;98630.20;;;6.92;86.93
57885;BME280;43703;51.060;-0.086;2023-04-01T04:00:32;98636.97;;;6.12;88.79
57885;BME280;43703;51.060;-0.086;2023-04-01T04:02:57;98640.53;;;5.92;89.40
57885;BME280;43703;51.060;-0.086;2023-04-01T04:05:22;98642.35;;;6.63;85.88
57885;BME280;43703;51.060;-0.086;2023-04-01T04:07:47;98644.50;;;6.67;88.01
57885;BME280;43703;51.060;-0.086;2023-04-01T04:10:12;98647.54;;;6.23;89.29
57885;BME280;43703;51.060;-0.086;2023-04-01T04:12:37;98650.08;;;6.17;91.26
57885;BME280;43703;51.060;-0.086;2023-04-01T04:15:02;98650.08;;;6.54;88.00
57885;BME280;43703;51.060;-0.086;2023-04-01T04:17:27;98653.35;;;6.42;87.33
57885;BME280;43703;51.060;-0.086;2023-04-01T04:19:52;98656.12;;;6.42;88.40
57885;BME280;43703;51.060;-0.086;2023-04-01T04:22:17;98660.74;;;6.90;86.73
57885;BME280;43703;51.060;-0.086;2023-04-01T04:24:42;98665.05;;;7.54;83.21
57885;BME280;43703;51.060;-0.086;2023-04-01T04:27:07;98664.59;;;8.36;78.82
57885;BME280;43703;51.060;-0.086;2023-04-01T04:29:32;98665.61;;;8.94;75.90
57885;BME280;43703;51.060;-0.086;2023-04-01T04:31:57;98669.51;;;7.52;79.61
57885;BME280;43703;51.060;-0.086;2023-04-01T04:34:22;98670.52;;;7.30;79.96
57885;BME280;43703;51.060;-0.086;2023-04-01T04:36:48;98672.00;;;9.19;74.82
57885;BME280;43703;51.060;-0.086;2023-04-01T04:39:13;98678.00;;;8.74;74.91
57885;BME280;43703;51.060;-0.086;2023-04-01T04:41:38;98681.90;;;9.45;73.32
57885;BME280;43703;51.060;-0.086;2023-04-01T04:44:03;98681.87;;;9.43;71.87
57885;BME280;43703;51.060;-0.086;2023-04-01T04:46:29;98686.59;;;9.39;72.02
57885;BME280;43703;51.060;-0.086;2023-04-01T04:48:54;98687.93;;;9.61;71.25
57885;BME280;43703;51.060;-0.086;2023-04-01T04:51:20;98689.21;;;9.56;71.64
57885;BME280;43703;51.060;-0.086;2023-04-01T04:53:45;98691.88;;;9.48;71.55
57885;BME280;43703;51.060;-0.086;2023-04-01T04:56:09;98692.14;;;9.39;71.94
57885;BME280;43703;51.060;-0.086;2023-04-01T04:58:34;98694.97;;;9.63;70.48
57885;BME280;43703;51.060;-0.086;2023-04-01T05:00:59;98697.80;;;8.23;75.13
57885;BME280;43703;51.060;-0.086;2023-04-01T05:03:24;98700.06;;;7.83;75.93
57885;BME280;43703;51.060;-0.086;2023-04-01T05:05:50;98699.09;;;8.77;72.91
57885;BME280;43703;51.060;-0.086;2023-04-01T05:08:14;98702.40;;;8.19;73.65
57885;BME280;43703;51.060;-0.086;2023-04-01T05:10:39;98705.96;;;7.58;73.70
57885;BME280;43703;51.060;-0.086;2023-04-01T05:13:04;98707.37;;;7.86;75.21
57885;BME280;43703;51.060;-0.086;2023-04-01T05:15:29;98712.38;;;7.93;75.45
57885;BME280;43703;51.060;-0.086;2023-04-01T05:17:54;98717.84;;;7.98;76.29
57885;BME280;43703;51.060;-0.086;2023-04-01T05:20:19;98718.89;;;8.33;74.27
57885;BME280;43703;51.060;-0.086;2023-04-01T05:22:44;98717.42;;;8.10;74.61
57885;BME280;43703;51.060;-0.086;2023-04-01T05:25:09;98722.06;;;7.52;75.99
57885;BME280;43703;51.060;-0.086;2023-04-01T05:27:34;98723.59;;;7.46;76.03
57885;BME280;43703;51.060;-0.086;2023-04-01T05:29:59;98725.98;;;8.73;73.96
57885;BME280;43703;51.060;-0.086;2023-04-01T05:32:24;98722.48;;;9.02;72.90
57885;BME280;43703;51.060;-0.086;2023-04-01T05:34:50;98725.50;;;8.36;73.11
57885;BME280;43703;51.060;-0.086;2023-04-01T05:37:14;98727.73;;;9.41;72.00
57885;BME280;43703;51.060;-0.086;2023-04-01T05:39:39;98728.96;;;8.99;72.41
57885;BME280;43703;51.060;-0.086;2023-04-01T05:42:06;98735.67;;;9.42;71.77
57885;BME280;43703;51.060;-0.086;2023-04-01T05:44:29;98736.58;;;9.08;72.10
57885;BME280;43703;51.060;-0.086;2023-04-01T05:46:54;98738.07;;;9.63;70.55
57885;BME280;43703;51.060;-0.086;2023-04-01T05:49:19;98740.13;;;9.38;70.41
57885;BME280;43703;51.060;-0.086;2023-04-01T05:51:44;98740.73;;;8.86;72.64
57885;BME280;43703;51.060;-0.086;2023-04-01T05:54:09;98746.05;;;9.43;71.36
57885;BME280;43703;51.060;-0.086;2023-04-01T05:56:34;98748.40;;;9.21;71.45
57885;BME280;43703;51.060;-0.086;2023-04-01T05:58:59;98752.17;;;8.70;72.01
57885;BME280;43703;51.060;-0.086;2023-04-01T06:01:25;98753.88;;;8.68;72.22
57885;BME280;43703;51.060;-0.086;2023-04-01T06:03:49;98755.57;;;9.17;71.81
57885;BME280;43703;51.060;-0.086;2023-04-01T06:06:18;98761.86;;;8.20;72.97
57885;BME280;43703;51.060;-0.086;2023-04-01T06:08:40;98762.33;;;9.53;71.42
57885;BME280;43703;51.060;-0.086;2023-04-01T06:11:15;98767.07;;;8.96;71.49
57885;BME280;43703;51.060;-0.086;2023-04-01T06:13:39;98765.53;;;9.11;71.37
57885;BME280;43703;51.060;-0.086;2023-04-01T06:16:02;98768.68;;;9.02;69.87
57885;BME280;43703;51.060;-0.086;2023-04-01T06:18:38;98772.79;;;8.92;70.60
57885;BME280;43703;51.060;-0.086;2023-04-01T06:20:53;98777.42;;;8.21;73.51
57885;BME280;43703;51.060;-0.086;2023-04-01T06:23:24;98784.99;;;7.58;76.03
57885;BME280;43703;51.060;-0.086;2023-04-01T06:25:43;98784.33;;;8.79;73.78
57885;BME280;43703;51.060;-0.086;2023-04-01T06:30:34;98788.48;;;9.43;70.63
57885;BME280;43703;51.060;-0.086;2023-04-01T06:33:02;98792.63;;;9.80;70.67
57885;BME280;43703;51.060;-0.086;2023-04-01T06:35:29;98789.23;;;9.52;69.91
57885;BME280;43703;51.060;-0.086;2023-04-01T06:37:52;98792.37;;;8.58;70.94
57885;BME280;43703;51.060;-0.086;2023-04-01T06:40:21;98794.17;;;8.51;71.87
57885;BME280;43703;51.060;-0.086;2023-04-01T06:42:40;98796.00;;;8.67;72.26
57885;BME280;43703;51.060;-0.086;2023-04-01T06:45:07;98799.21;;;9.15;72.19
57885;BME280;43703;51.060;-0.086;2023-04-01T06:47:31;98801.58;;;9.53;71.01
57885;BME280;43703;51.060;-0.086;2023-04-01T06:49:55;98801.76;;;9.92;70.94
57885;BME280;43703;51.060;-0.086;2023-04-01T06:52:19;98804.41;;;10.07;69.24
57885;BME280;43703;51.060;-0.086;2023-04-01T06:54:40;98808.10;;;10.08;69.20
57885;BME280;43703;51.060;-0.086;2023-04-01T06:57:08;98810.76;;;9.24;71.52
57885;BME280;43703;51.060;-0.086;2023-04-01T06:59:29;98814.32;;;9.71;71.28
57885;BME280;43703;51.060;-0.086;2023-04-01T07:01:55;98816.93;;;9.77;70.66
57885;BME280;43703;51.060;-0.086;2023-04-01T07:04:21;98824.19;;;9.13;71.61
57885;BME280;43703;51.060;-0.086;2023-04-01T07:06:46;98825.63;;;8.62;72.00
57885;BME280;43703;51.060;-0.086;2023-04-01T07:09:10;98825.00;;;9.63;71.15
57885;BME280;43703;51.060;-0.086;2023-04-01T07:11:35;98832.59;;;9.08;72.48
57885;BME280;43703;51.060;-0.086;2023-04-01T07:14:01;98836.94;;;9.63;70.06
57885;BME280;43703;51.060;-0.086;2023-04-01T07:16:27;98841.12;;;10.30;69.43
57885;BME280;43703;51.060;-0.086;2023-04-01T07:18:51;98843.83;;;10.17;70.52
57885;BME280;43703;51.060;-0.086;2023-04-01T07:21:23;98841.82;;;9.68;69.58
57885;BME280;43703;51.060;-0.086;2023-04-01T07:23:42;98843.88;;;9.61;70.90
57885;BME280;43703;51.060;-0.086;2023-04-01T07:26:11;98848.13;;;9.76;70.86
57885;BME280;43703;51.060;-0.086;2023-04-01T07:28:30;98847.01;;;9.90;70.02
57885;BME280;43703;51.060;-0.086;2023-04-01T07:31:00;98853.66;;;9.91;68.87
57885;BME280;43703;51.060;-0.086;2023-04-01T07:33:22;98857.54;;;9.91;70.48
57885;BME280;43703;51.060;-0.086;2023-04-01T07:35:49;98859.16;;;9.83;71.23
57885;BME280;43703;51.060;-0.086;2023-04-01T07:38:16;98865.76;;;9.50;71.26
57885;BME280;43703;51.060;-0.086;2023-04-01T07:40:39;98868.22;;;9.12;69.76
57885;BME280;43703;51.060;-0.086;2023-04-01T07:43:07;98873.46;;;9.40;69.00
57885;BME280;43703;51.060;-0.086;2023-04-01T07:45:26;98874.73;;;9.43;69.94
57885;BME280;43703;51.060;-0.086;2023-04-01T07:47:57;98880.61;;;9.23;69.91
57885;BME280;43703;51.060;-0.086;2023-04-01T07:50:19;98881.25;;;9.41;71.62
57885;BME280;43703;51.060;-0.086;2023-04-01T07:52:44;98887.72;;;9.23;71.71
57885;BME280;43703;51.060;-0.086;2023-04-01T07:55:09;98886.45;;;10.46;71.60
57885;BME280;43703;51.060;-0.086;2023-04-01T07:57:35;98891.11;;;10.68;69.09
57885;BME280;43703;51.060;-0.086;2023-04-01T07:59:59;98894.17;;;10.58;68.99
57885;BME280;43703;51.060;-0.086;2023-04-01T08:02:27;98897.94;;;10.38;67.79
57885;BME280;43703;51.060;-0.086;2023-04-01T08:04:52;98901.65;;;9.07;68.73
57885;BME280;43703;51.060;-0.086;2023-04-01T08:07:12;98906.73;;;8.58;70.74
57885;BME280;43703;51.060;-0.086;2023-04-01T08:09:41;98907.42;;;9.66;70.27
57885;BME280;43703;51.060;-0.086;2023-04-01T08:12:07;98911.52;;;9.64;69.95
57885;BME280;43703;51.060;-0.086;2023-04-01T08:14:31;98912.16;;;10.21;69.83
57885;BME280;43703;51.060;-0.086;2023-04-01T08:16:55;98915.68;;;9.02;71.04
57885;BME280;43703;51.060;-0.086;2023-04-01T08:19:21;98919.18;;;9.42;70.99
57885;BME280;43703;51.060;-0.086;2023-04-01T08:21:43;98925.09;;;8.72;70.32
57885;BME280;43703;51.060;-0.086;2023-04-01T08:24:11;98932.52;;;9.31;70.35
57885;BME280;43703;51.060;-0.086;2023-04-01T08:26:34;98934.08;;;9.30;71.29
57885;BME280;43703;51.060;-0.086;2023-04-01T08:28:59;98940.64;;;9.46;69.43
57885;BME280;43703;51.060;-0.086;2023-04-01T08:31:24;98940.58;;;10.29;68.11
57885;BME280;43703;51.060;-0.086;2023-04-01T08:33:47;98944.17;;;9.94;68.72
57885;BME280;43703;51.060;-0.086;2023-04-01T08:36:14;98950.11;;;7.77;71.30
57885;BME280;43703;51.060;-0.086;2023-04-01T08:38:41;98954.63;;;9.48;70.15
57885;BME280;43703;51.060;-0.086;2023-04-01T08:41:10;98953.60;;;9.36;69.99
57885;BME280;43703;51.060;-0.086;2023-04-01T08:46:06;98955.83;;;10.41;69.20
57885;BME280;43703;51.060;-0.086;2023-04-01T08:48:27;98959.82;;;10.20;70.13
57885;BME280;43703;51.060;-0.086;2023-04-01T08:50:58;98962.11;;;9.99;70.81
57885;BME280;43703;51.060;-0.086;2023-04-01T08:53:13;98963.76;;;10.46;71.44
57885;BME280;43703;51.060;-0.086;2023-04-01T08:55:40;98967.00;;;10.50;69.33
57885;BME280;43703;51.060;-0.086;2023-04-01T09:00:30;98973.60;;;10.01;67.26
57885;BME280;43703;51.060;-0.086;2023-04-01T09:03:04;98975.69;;;10.46;69.13
57885;BME280;43703;51.060;-0.086;2023-04-01T09:05:21;98976.06;;;9.54;68.09
57885;BME280;43703;51.060;-0.086;2023-04-01T09:07:43;98973.05;;;9.86;69.79
57885;BME280;43703;51.060;-0.086;2023-04-01T09:12:43;98983.60;;;10.81;69.62
57885;BME280;43703;51.060;-0.086;2023-04-01T09:17:30;98984.50;;;10.53;68.92
57885;BME280;43703;51.060;-0.086;2023-04-01T09:19:59;98991.59;;;9.80;65.96
57885;BME280;43703;51.060;-0.086;2023-04-01T09:22:25;98992.21;;;10.96;68.47
57885;BME280;43703;51.060;-0.086;2023-04-01T09:24:46;98993.87;;;9.75;66.41
57885;BME280;43703;51.060;-0.086;2023-04-01T09:27:08;98997.16;;;10.35;67.61
57885;BME280;43703;51.060;-0.086;2023-04-01T09:29:43;99001.12;;;9.85;66.82
57885;BME280;43703;51.060;-0.086;2023-04-01T09:32:12;99001.50;;;9.78;67.02
57885;BME280;43703;51.060;-0.086;2023-04-01T09:34:30;99008.67;;;9.26;67.92
57885;BME280;43703;51.060;-0.086;2023-04-01T09:36:54;99009.53;;;10.58;68.96
57885;BME280;43703;51.060;-0.086;2023-04-01T09:39:26;99009.25;;;10.87;67.78
57885;BME280;43703;51.060;-0.086;2023-04-01T09:41:46;99013.30;;;10.12;65.27
57885;BME280;43703;51.060;-0.086;2023-04-01T09:44:06;99013.43;;;10.21;67.58
57885;BME280;43703;51.060;-0.086;2023-04-01T09:46:42;99016.72;;;10.30;68.29
57885;BME280;43703;51.060;-0.086;2023-04-01T09:51:27;99025.84;;;10.39;66.11
57885;BME280;43703;51.060;-0.086;2023-04-01T09:53:56;99027.98;;;10.51;67.43
57885;BME280;43703;51.060;-0.086;2023-04-01T10:03:42;99042.94;;;10.06;67.39
57885;BME280;43703;51.060;-0.086;2023-04-01T10:10:57;99054.35;;;8.00;71.48
57885;BME280;43703;51.060;-0.086;2023-04-01T10:15:45;99054.13;;;9.71;70.49
57885;BME280;43703;51.060;-0.086;2023-04-01T10:18:14;99058.04;;;8.68;71.20
57885;BME280;43703;51.060;-0.086;2023-04-01T10:20:41;99060.35;;;9.65;71.27
57885;BME280;43703;51.060;-0.086;2023-04-01T10:23:07;99065.31;;;9.08;70.35
57885;BME280;43703;51.060;-0.086;2023-04-01T10:25:27;99067.09;;;10.93;69.60
57885;BME280;43703;51.060;-0.086;2023-04-01T10:27:50;99070.91;;;10.74;68.68
57885;BME280;43703;51.060;-0.086;2023-04-01T10:37:36;99081.14;;;11.00;68.21
57885;BME280;43703;51.060;-0.086;2023-04-01T10:49:44;99097.44;;;10.33;66.43
57885;BME280;43703;51.060;-0.086;2023-04-01T10:56:55;99106.93;;;11.25;66.63
57885;BME280;43703;51.060;-0.086;2023-04-01T10:59:28;99108.99;;;10.40;64.02
57885;BME280;43703;51.060;-0.086;2023-04-01T11:01:52;99109.46;;;11.13;66.39
57885;BME280;43703;51.060;-0.086;2023-04-01T11:09:07;99111.48;;;10.23;65.77
57885;BME280;43703;51.060;-0.086;2023-04-01T11:16:25;99107.19;;;12.33;65.67
57885;BME280;43703;51.060;-0.086;2023-04-01T11:23:42;99119.00;;;11.29;61.57
57885;BME280;43703;51.060;-0.086;2023-04-01T11:26:04;99122.99;;;12.31;64.98
57885;BME280;43703;51.060;-0.086;2023-04-01T11:28:36;99128.87;;;12.15;61.98
57885;BME280;43703;51.060;-0.086;2023-04-01T11:31:00;99131.72;;;12.34;64.90
57885;BME280;43703;51.060;-0.086;2023-04-01T11:33:19;99135.39;;;11.84;62.12
57885;BME280;43703;51.060;-0.086;2023-04-01T11:38:17;99142.40;;;12.63;63.87
57885;BME280;43703;51.060;-0.086;2023-04-01T11:40:39;99140.93;;;12.95;63.21
57885;BME280;43703;51.060;-0.086;2023-04-01T11:43:04;99148.08;;;12.53;62.93
57885;BME280;43703;51.060;-0.086;2023-04-01T11:45:35;99152.00;;;11.89;61.85
57885;BME280;43703;51.060;-0.086;2023-04-01T11:47:58;99150.39;;;11.38;62.00
57885;BME280;43703;51.060;-0.086;2023-04-01T11:50:23;99159.36;;;12.25;64.30
57885;BME280;43703;51.060;-0.086;2023-04-01T11:55:22;99170.38;;;11.85;59.34
57885;BME280;43703;51.060;-0.086;2023-04-01T11:57:43;99174.90;;;12.31;64.89
57885;BME280;43703;51.060;-0.086;2023-04-01T12:02:31;99176.38;;;11.49;59.93
57885;BME280;43703;51.060;-0.086;2023-04-01T12:04:58;99180.70;;;12.18;61.68
57885;BME280;43703;51.060;-0.086;2023-04-01T12:07:23;99185.05;;;11.83;59.65
57885;BME280;43703;51.060;-0.086;2023-04-01T12:09:50;99187.53;;;12.00;60.67
57885;BME280;43703;51.060;-0.086;2023-04-01T12:12:19;99188.29;;;11.59;62.00
57885;BME280;43703;51.060;-0.086;2023-04-01T12:14:39;99197.75;;;9.46;64.71
57885;BME280;43703;51.060;-0.086;2023-04-01T12:17:07;99201.29;;;11.16;66.71
57885;BME280;43703;51.060;-0.086;2023-04-01T12:19:32;99202.87;;;11.50;63.98
57885;BME280;43703;51.060;-0.086;2023-04-01T12:22:02;99207.40;;;12.72;65.14
57885;BME280;43703;51.060;-0.086;2023-04-01T12:24:25;99205.72;;;10.89;60.55
57885;BME280;43703;51.060;-0.086;2023-04-01T12:29:21;99215.79;;;12.15;63.11
57885;BME280;43703;51.060;-0.086;2023-04-01T12:31:41;99217.26;;;11.53;61.47
57885;BME280;43703;51.060;-0.086;2023-04-01T12:36:38;99229.73;;;12.43;64.29
57885;BME280;43703;51.060;-0.086;2023-04-01T12:39:03;99232.52;;;12.17;58.32
57885;BME280;43703;51.060;-0.086;2023-04-01T12:41:24;99234.98;;;12.40;60.62
57885;BME280;43703;51.060;-0.086;2023-04-01T12:43:58;99232.71;;;12.91;63.79
57885;BME280;43703;51.060;-0.086;2023-04-01T12:46:13;99230.79;;;14.08;61.98
57885;BME280;43703;51.060;-0.086;2023-04-01T12:51:07;99238.81;;;13.93;59.18
57885;BME280;43703;51.060;-0.086;2023-04-01T12:53:34;99242.18;;;13.26;57.42
57885;BME280;43703;51.060;-0.086;2023-04-01T12:55:48;99245.86;;;13.90;57.48
57885;BME280;43703;51.060;-0.086;2023-04-01T12:58:29;99246.30;;;13.84;55.99
57885;BME280;43703;51.060;-0.086;2023-04-01T13:00:48;99250.17;;;14.56;56.36
57885;BME280;43703;51.060;-0.086;2023-04-01T13:03:18;99256.36;;;14.28;54.85
57885;BME280;43703;51.060;-0.086;2023-04-01T13:05:39;99259.51;;;13.07;56.66
57885;BME280;43703;51.060;-0.086;2023-04-01T13:08:00;99263.46;;;12.52;54.03
57885;BME280;43703;51.060;-0.086;2023-04-01T13:10:32;99259.80;;;12.67;58.36
57885;BME280;43703;51.060;-0.086;2023-04-01T13:13:00;99258.26;;;12.60;60.15
57885;BME280;43703;51.060;-0.086;2023-04-01T13:15:23;99265.44;;;13.59;55.81
57885;BME280;43703;51.060;-0.086;2023-04-01T13:17:44;99265.69;;;13.81;54.55
57885;BME280;43703;51.060;-0.086;2023-04-01T13:20:14;99268.92;;;12.94;55.92
57885;BME280;43703;51.060;-0.086;2023-04-01T13:22:45;99271.88;;;12.71;54.62
57885;BME280;43703;51.060;-0.086;2023-04-01T13:25:01;99276.68;;;13.35;58.05
57885;BME280;43703;51.060;-0.086;2023-04-01T13:27:28;99277.64;;;12.42;57.70
57885;BME280;43703;51.060;-0.086;2023-04-01T13:30:01;99283.92;;;12.08;55.39
57885;BME280;43703;51.060;-0.086;2023-04-01T13:32:24;99285.82;;;12.79;57.81
57885;BME280;43703;51.060;-0.086;2023-04-01T13:34:52;99292.52;;;12.34;56.71
57885;BME280;43703;51.060;-0.086;2023-04-01T13:37:20;99294.99;;;12.46;56.47
57885;BME280;43703;51.060;-0.086;2023-04-01T13:39:43;99303.68;;;13.11;55.68
57885;BME280;43703;51.060;-0.086;2023-04-01T13:42:11;99305.78;;;12.91;55.98
57885;BME280;43703;51.060;-0.086;2023-04-01T13:44:30;99309.44;;;12.10;57.31
57885;BME280;43703;51.060;-0.086;2023-04-01T13:47:02;99312.44;;;12.40;56.39
57885;BME280;43703;51.060;-0.086;2023-04-01T13:49:30;99314.77;;;11.60;57.17
57885;BME280;43703;51.060;-0.086;2023-04-01T13:51:53;99310.18;;;12.70;58.89
57885;BME280;43703;51.060;-0.086;2023-04-01T13:56:36;99313.94;;;12.81;55.72
57885;BME280;43703;51.060;-0.086;2023-04-01T14:01:31;99319.94;;;13.15;54.53
57885;BME280;43703;51.060;-0.086;2023-04-01T14:06:27;99325.76;;;12.03;53.87
57885;BME280;43703;51.060;-0.086;2023-04-01T14:08:56;99325.63;;;12.66;56.81
57885;BME280;43703;51.060;-0.086;2023-04-01T14:11:15;99329.91;;;13.27;54.24
57885;BME280;43703;51.060;-0.086;2023-04-01T14:13:41;99333.98;;;13.20;55.14
57885;BME280;43703;51.060;-0.086;2023-04-01T14:16:13;99335.50;;;13.73;55.07
57885;BME280;43703;51.060;-0.086;2023-04-01T14:21:00;99340.02;;;12.37;53.09